Time;durP1;ratioP1;P1;durP2;ratioP2;P2;SDS_P1;SDS_P2;PMS_P1;PMS_P2;Temp;Humidity;BMP_temperature;BMP_pressure;BME280_temperature;BME280_humidity;BME280_pressure;Samples;Min_cycle;Max_cycle;Signal;HPM_P1;HPM_P2
2021/08/29 00:01:21;;;;;;;9.50;3.60;;;;;;;14.64;100.00;139560.31;5059872;28;20496;-67
2021/08/29 00:03:46;;;;;;;10.97;3.70;;;;;;;14.63;100.00;139217.28;5055132;28;20119;-67
2021/08/29 00:06:12;;;;;;;10.50;3.23;;;;;;;14.65;100.00;140924.44;5048931;28;20232;-67
2021/08/29 00:08:37;;;;;;;10.13;2.90;;;;;;;14.63;100.00;140578.81;5055176;28;20040;-67
2021/08/29 00:11:03;;;;;;;10.20;3.70;;;;;;;14.60;100.00;140572.78;5054860;28;20273;-67
2021/08/29 00:13:28;;;;;;;10.67;3.33;;;;;;;14.62;100.00;141940.88;5050290;28;20259;-67
2021/08/29 00:15:54;;;;;;;10.43;4.00;;;;;;;14.60;100.00;142617.81;5046931;28;20041;-67
2021/08/29 00:18:19;;;;;;;10.87;3.40;;;;;;;14.58;100.00;142953.84;5059955;28;20028;-67
2021/08/29 00:20:46;;;;;;;10.13;3.50;;;;;;;14.57;100.00;143632.13;5049333;28;20046;-67
2021/08/29 00:23:11;;;;;;;9.40;2.93;;;;;;;14.56;100.00;144312.97;5053299;28;20112;-67
2021/08/29 00:25:37;;;;;;;8.80;3.40;;;;;;;14.56;100.00;144995.19;5058953;28;20041;-68
2021/08/29 00:28:03;;;;;;;8.03;3.33;;;;;;;14.55;100.00;145675.00;5044295;28;20548;-67
2021/08/29 00:30:29;;;;;;;11.30;3.70;;;;;;;14.54;100.00;146012.47;5059694;28;20390;-68
2021/08/29 00:32:55;;;;;;;9.60;4.00;;;;;;;14.48;100.00;145998.63;5051391;28;20039;-68
2021/08/29 00:35:20;;;;;;;10.17;3.90;;;;;;;14.53;100.00;146352.41;5053733;28;20025;-68
2021/08/29 00:37:46;;;;;;;12.03;3.60;;;;;;;14.55;100.00;146698.75;5054555;28;20498;-68
2021/08/29 00:40:13;;;;;;;11.80;3.53;;;;;;;14.53;100.00;147034.97;5055669;28;20227;-68
2021/08/29 00:42:39;;;;;;;14.43;4.07;;;;;;;14.55;100.00;147040.06;5048365;28;20120;-68
2021/08/29 00:45:05;;;;;;;18.27;4.87;;;;;;;14.54;100.00;147037.53;5055865;28;20103;-68
2021/08/29 00:47:32;;;;;;;11.10;4.03;;;;;;;14.55;100.00;146698.75;5048757;28;20094;-68
2021/08/29 00:49:57;;;;;;;9.27;3.70;;;;;;;14.55;100.00;146698.75;5057586;28;20028;-68
2021/08/29 00:52:23;;;;;;;11.27;3.90;;;;;;;14.55;100.00;147040.06;5059770;28;20059;-68
2021/08/29 00:54:48;;;;;;;8.67;3.97;;;;;;;14.57;100.00;147043.84;5053471;28;20028;-68
2021/08/29 00:57:14;;;;;;;10.73;3.80;;;;;;;14.59;100.00;147390.28;5054628;28;20138;-68
2021/08/29 00:59:40;;;;;;;11.40;4.80;;;;;;;14.58;100.00;147389.00;5059410;28;20056;-68
2021/08/29 01:02:14;;;;;;;13.70;4.43;;;;;;;14.59;100.00;147391.53;5058574;28;20599;-68
2021/08/29 01:04:47;;;;;;;12.33;4.77;;;;;;;14.53;100.00;147034.97;5052483;28;20392;-68
2021/08/29 01:07:22;;;;;;;15.57;4.63;;;;;;;14.55;100.00;147040.06;5047940;28;20028;-68
2021/08/29 01:09:52;;;;;;;13.50;5.00;;;;;;;14.54;100.00;147036.28;5051006;28;20086;-68
2021/08/29 01:12:22;;;;;;;11.70;5.13;;;;;;;14.56;100.00;147382.69;5048082;28;20040;-68
2021/08/29 01:14:53;;;;;;;14.67;4.60;;;;;;;14.56;100.00;147383.94;5049582;28;20069;-69
2021/08/29 01:17:23;;;;;;;11.40;4.67;;;;;;;14.58;100.00;147389.00;5058123;28;20392;-68
2021/08/29 01:20:50;;;;;;;10.93;4.87;;;;;;;14.54;100.00;147037.53;5068314;28;20302;-68
2021/08/29 01:23:19;;;;;;;12.43;4.60;;;;;;;14.56;100.00;146701.28;4998930;28;20425;-68
2021/08/29 01:25:53;;;;;;;14.80;4.03;;;;;;;14.57;100.00;147043.84;5008810;28;20132;-68
2021/08/29 01:28:23;;;;;;;12.00;4.83;;;;;;;14.54;100.00;147037.53;4999897;28;20033;-68
2021/08/29 01:30:49;;;;;;;11.10;4.07;;;;;;;14.58;100.00;146706.31;5007768;28;20067;-68
2021/08/29 01:33:16;;;;;;;13.47;4.30;;;;;;;14.57;100.00;146703.78;5000552;28;20041;-68
2021/08/29 01:35:43;;;;;;;10.43;4.40;;;;;;;14.57;100.00;147045.13;5019948;28;20032;-68
2021/08/29 01:38:10;;;;;;;13.90;4.73;;;;;;;14.60;100.00;147394.06;5023264;28;20041;-68
2021/08/29 01:40:37;;;;;;;11.93;4.30;;;;;;;14.60;100.00;146711.34;5030633;28;20056;-68
2021/08/29 01:43:04;;;;;;;11.63;4.37;;;;;;;14.63;100.00;147401.66;5020981;28;20064;-68
2021/08/29 01:45:31;;;;;;;11.47;4.10;;;;;;;14.54;100.00;146696.22;5021525;28;20126;-68
2021/08/29 01:47:58;;;;;;;11.00;4.30;;;;;;;14.57;100.00;146362.50;5009216;28;20574;-68
2021/08/29 01:50:25;;;;;;;10.37;4.43;;;;;;;14.55;100.00;146356.22;5016876;28;20142;-68
2021/08/29 01:52:50;;;;;;;14.00;4.50;;;;;;;14.55;100.00;146357.47;5012997;28;20045;-68
2021/08/29 01:55:16;;;;;;;12.30;4.37;;;;;;;14.54;100.00;146012.47;5015619;28;20083;-69
2021/08/29 01:57:42;;;;;;;15.67;4.30;;;;;;;14.55;100.00;146357.47;5044220;28;20256;-68
2021/08/29 02:00:08;;;;;;;13.73;4.07;;;;;;;14.55;100.00;146697.50;5060224;28;20032;-69
2021/08/29 02:02:36;;;;;;;15.73;5.40;;;;;;;14.57;100.00;147043.84;5056615;28;20029;-68
2021/08/29 02:05:04;;;;;;;12.37;4.47;;;;;;;14.56;100.00;147042.59;5052783;28;20033;-68
2021/08/29 02:07:37;;;;;;;11.57;4.40;;;;;;;14.51;100.00;146688.63;5060630;28;20032;-68
2021/08/29 02:10:06;;;;;;;11.83;4.10;;;;;;;14.49;100.00;146682.34;5062114;28;20062;-67
2021/08/29 02:12:43;;;;;;;12.53;4.50;;;;;;;14.50;100.00;147027.41;5047549;28;20039;-67
2021/08/29 02:15:20;;;;;;;11.53;4.50;;;;;;;14.53;100.00;147033.72;5061911;28;20171;-68
2021/08/29 02:17:48;;;;;;;9.80;3.90;;;;;;;14.48;100.00;147022.34;5052134;28;20035;-67
2021/08/29 02:20:19;;;;;;;15.70;4.40;;;;;;;14.48;100.00;147022.34;5056032;28;20024;-67
2021/08/29 02:22:45;;;;;;;10.93;4.10;;;;;;;14.48;100.00;147362.38;5060593;28;20036;-67
2021/08/29 02:25:11;;;;;;;14.07;4.03;;;;;;;14.44;100.00;147012.25;5050104;28;20040;-67
2021/08/29 02:27:38;;;;;;;9.40;3.77;;;;;;;14.46;100.00;147017.28;5055727;28;20056;-67
2021/08/29 02:30:06;;;;;;;9.57;4.17;;;;;;;14.43;100.00;147350.94;5061903;28;20043;-67
2021/08/29 02:32:35;;;;;;;8.70;3.80;;;;;;;14.44;100.00;147012.25;5056970;28;20338;-67
2021/08/29 02:35:01;;;;;;;10.63;3.90;;;;;;;14.36;100.00;146650.75;5063075;28;20032;-67
2021/08/29 02:37:28;;;;;;;12.47;4.07;;;;;;;14.40;100.00;146659.56;5058031;28;20081;-67
2021/08/29 02:39:57;;;;;;;10.37;4.00;;;;;;;14.41;100.00;146663.34;5061849;28;20036;-67
2021/08/29 02:42:25;;;;;;;18.20;4.17;;;;;;;14.39;100.00;146658.31;5058134;28;20093;-67
2021/08/29 02:44:52;;;;;;;9.53;4.17;;;;;;;14.42;100.00;146664.66;5058963;28;20059;-67
2021/08/29 02:47:18;;;;;;;12.00;4.07;;;;;;;14.37;100.00;146654.53;5054592;28;20457;-67
2021/08/29 02:49:44;;;;;;;11.47;4.07;;;;;;;14.39;100.00;146317.13;5054870;28;20046;-68
2021/08/29 02:52:09;;;;;;;13.10;4.13;;;;;;;14.37;100.00;146653.28;5056605;28;20025;-68
2021/08/29 02:54:40;;;;;;;8.63;4.20;;;;;;;14.36;100.00;146309.59;5060963;28;20040;-68
2021/08/29 02:57:09;;;;;;;9.93;4.23;;;;;;;14.31;100.00;145957.16;5049137;28;20079;-68
2021/08/29 02:59:35;;;;;;;12.57;4.37;;;;;;;14.37;100.00;146312.09;5051647;28;20125;-68
2021/08/29 03:02:00;;;;;;;11.57;4.13;;;;;;;14.37;100.00;146313.34;5052464;28;20112;-68
2021/08/29 03:04:26;;;;;;;9.73;4.70;;;;;;;14.35;100.00;146307.06;5060293;28;20302;-68
2021/08/29 03:06:52;;;;;;;10.07;4.07;;;;;;;14.39;100.00;146658.31;5055624;28;20074;-68
2021/08/29 03:09:17;;;;;;;13.90;4.83;;;;;;;14.40;100.00;147000.78;5047565;28;20040;-67
2021/08/29 03:11:43;;;;;;;12.70;4.23;;;;;;;14.40;100.00;146660.81;5048666;28;20041;-68
2021/08/29 03:14:09;;;;;;;12.83;4.33;;;;;;;14.35;100.00;145965.94;5059239;28;20107;-68
2021/08/29 03:16:35;;;;;;;11.67;4.10;;;;;;;14.34;100.00;146304.56;5060733;28;20038;-67
2021/08/29 03:19:01;;;;;;;10.97;3.93;;;;;;;14.35;100.00;146648.22;5052756;28;20386;-67
2021/08/29 03:21:27;;;;;;;10.90;3.80;;;;;;;14.30;100.00;146294.50;5049266;28;20021;-67
2021/08/29 03:23:54;;;;;;;9.60;3.73;;;;;;;14.26;100.00;146284.41;5060190;28;20025;-67
2021/08/29 03:26:19;;;;;;;10.23;3.67;;;;;;;14.22;100.00;145934.56;5060396;28;20024;-67
2021/08/29 03:28:45;;;;;;;8.80;3.30;;;;;;;14.22;100.00;145934.56;5060445;28;20069;-67
2021/08/29 03:31:10;;;;;;;6.33;2.83;;;;;;;14.20;100.00;145928.28;5058306;28;20029;-67
2021/08/29 03:33:39;;;;;;;6.57;2.90;;;;;;;14.13;100.00;145910.72;5060191;28;20029;-67
2021/08/29 03:36:05;;;;;;;9.10;3.50;;;;;;;14.16;100.00;145577.25;5050288;28;20104;-67
2021/08/29 03:38:33;;;;;;;7.73;3.00;;;;;;;14.18;100.00;145582.28;5060274;28;20355;-67
2021/08/29 03:41:00;;;;;;;8.07;3.40;;;;;;;14.20;100.00;145587.28;5058918;28;20047;-68
2021/08/29 03:43:26;;;;;;;7.83;3.63;;;;;;;14.17;100.00;145579.75;5054372;28;20060;-68
2021/08/29 03:45:51;;;;;;;10.17;4.03;;;;;;;14.22;100.00;145933.31;5049923;28;20064;-68
2021/08/29 03:48:17;;;;;;;9.70;3.77;;;;;;;14.22;100.00;145933.31;5047618;28;20044;-68
2021/08/29 03:50:45;;;;;;;9.20;3.73;;;;;;;14.23;100.00;146278.13;5055293;28;20319;-67
2021/08/29 03:53:11;;;;;;;7.10;3.27;;;;;;;14.23;100.00;146619.22;5048045;28;20103;-67
2021/08/29 03:55:38;;;;;;;9.47;2.83;;;;;;;14.20;100.00;146270.59;5054427;28;20068;-67
2021/08/29 03:58:04;;;;;;;8.77;2.93;;;;;;;14.18;100.00;145923.28;5060116;28;20032;-67
2021/08/29 04:00:30;;;;;;;7.00;2.97;;;;;;;14.19;100.00;146266.84;5056345;28;20063;-67
2021/08/29 04:02:56;;;;;;;7.13;3.27;;;;;;;14.15;100.00;146256.72;5051763;28;20059;-67
2021/08/29 04:05:22;;;;;;;7.23;3.37;;;;;;;14.16;100.00;146260.50;5049161;28;20024;-67
2021/08/29 04:07:50;;;;;;;8.73;3.60;;;;;;;14.16;100.00;146259.25;5058461;28;20028;-67
2021/08/29 04:10:16;;;;;;;7.40;3.17;;;;;;;14.12;100.00;145908.19;5058744;28;20417;-67
2021/08/29 04:12:43;;;;;;;8.33;3.23;;;;;;;14.15;100.00;146256.72;5052157;28;20028;-67
2021/08/29 04:15:11;;;;;;;8.00;3.30;;;;;;;14.18;100.00;146264.31;5059152;28;20056;-67
2021/08/29 04:17:38;;;;;;;7.23;3.20;;;;;;;14.12;100.00;146249.19;5049489;28;20434;-68
2021/08/29 04:20:04;;;;;;;7.57;3.50;;;;;;;14.11;100.00;146246.69;5055614;28;20052;-67
2021/08/29 04:22:30;;;;;;;9.17;3.57;;;;;;;14.10;100.00;146244.16;5050231;28;20033;-67
2021/08/29 04:24:56;;;;;;;8.37;3.33;;;;;;;14.07;100.00;146237.91;5058931;28;20036;-67
2021/08/29 04:27:22;;;;;;;8.07;3.33;;;;;;;14.07;100.00;146239.16;5055607;28;20388;-68
2021/08/29 04:29:48;;;;;;;7.60;2.73;;;;;;;14.03;100.00;146227.78;5054333;28;20036;-68
2021/08/29 04:32:14;;;;;;;7.13;3.50;;;;;;;14.01;100.00;146224.03;5059375;28;20036;-68
2021/08/29 04:34:40;;;;;;;11.03;3.57;;;;;;;14.06;100.00;146235.38;5054192;28;20033;-67
2021/08/29 04:37:06;;;;;;;10.07;3.47;;;;;;;14.05;100.00;146575.13;5059626;28;20025;-67
2021/08/29 04:39:34;;;;;;;10.97;4.00;;;;;;;14.01;100.00;146222.78;5059198;28;20047;-68
2021/08/29 04:42:00;;;;;;;8.67;3.53;;;;;;;14.02;100.00;146225.28;5048310;28;20056;-67
2021/08/29 04:44:25;;;;;;;7.93;2.80;;;;;;;14.05;100.00;146575.13;5059399;28;20071;-68
2021/08/29 04:46:50;;;;;;;9.70;3.20;;;;;;;14.13;100.00;146933.81;5057178;28;20268;-68
2021/08/29 04:49:16;;;;;;;8.43;3.80;;;;;;;14.07;100.00;146921.19;5050560;28;20029;-68
2021/08/29 04:51:41;;;;;;;9.30;3.60;;;;;;;14.02;100.00;146567.50;5051721;28;20261;-67
2021/08/29 04:54:07;;;;;;;6.67;3.07;;;;;;;14.00;100.00;146221.50;5054160;28;20407;-67
2021/08/29 04:56:33;;;;;;;6.97;3.07;;;;;;;14.01;100.00;146563.72;5057298;28;20044;-67
2021/08/29 04:58:58;;;;;;;7.17;3.03;;;;;;;14.04;100.00;146572.56;5054142;28;20263;-67
2021/08/29 05:01:26;;;;;;;6.93;3.57;;;;;;;14.04;100.00;146913.56;5055945;28;20031;-67
2021/08/29 05:03:52;;;;;;;7.10;3.30;;;;;;;14.03;100.00;146911.03;5049870;28;20115;-67
2021/08/29 05:06:18;;;;;;;5.17;2.83;;;;;;;14.03;100.00;146911.03;5046791;28;20104;-67
2021/08/29 05:08:43;;;;;;;7.30;3.00;;;;;;;14.04;100.00;147254.63;5051064;28;20117;-67
2021/08/29 05:11:09;;;;;;;7.40;3.13;;;;;;;14.03;100.00;146911.03;5045773;28;20662;-67
2021/08/29 05:13:37;;;;;;;7.67;3.07;;;;;;;14.09;100.00;146924.97;5053431;28;20067;-67
2021/08/29 05:16:07;;;;;;;6.10;2.43;;;;;;;14.02;100.00;146908.53;5052438;28;20060;-67
2021/08/29 05:18:32;;;;;;;5.03;2.30;;;;;;;14.07;100.00;147262.25;5050698;28;20072;-67
2021/08/29 05:20:58;;;;;;;6.27;2.73;;;;;;;14.04;100.00;147254.63;5048187;28;20052;-67
2021/08/29 05:23:23;;;;;;;5.20;2.30;;;;;;;14.06;100.00;147259.72;5049147;28;20104;-67
2021/08/29 05:25:49;;;;;;;5.47;2.47;;;;;;;13.97;100.00;146895.91;5056836;28;20033;-67
2021/08/29 05:28:14;;;;;;;6.67;2.57;;;;;;;13.98;100.00;146898.44;5057010;28;20279;-67
2021/08/29 05:30:40;;;;;;;5.80;2.43;;;;;;;14.01;100.00;147247.03;5058032;28;20394;-67
2021/08/29 05:33:05;;;;;;;6.57;2.27;;;;;;;14.05;100.00;147596.97;5057367;28;20599;-67
2021/08/29 05:35:31;;;;;;;4.27;2.30;;;;;;;14.04;100.00;147254.63;5051238;28;20116;-67
2021/08/29 05:37:56;;;;;;;4.77;2.40;;;;;;;14.01;100.00;147247.03;5043031;28;20032;-67
2021/08/29 05:40:22;;;;;;;5.13;2.70;;;;;;;14.01;100.00;146906.00;5052972;28;20316;-67
2021/08/29 05:42:47;;;;;;;6.83;2.40;;;;;;;14.05;100.00;147257.19;5052932;28;20516;-67
2021/08/29 05:45:12;;;;;;;5.97;2.60;;;;;;;14.02;100.00;146908.53;5057621;28;20081;-67
2021/08/29 05:47:38;;;;;;;6.90;2.70;;;;;;;14.07;100.00;147262.25;5049539;28;20025;-67
2021/08/29 05:50:04;;;;;;;5.43;2.60;;;;;;;14.05;100.00;146916.13;5050500;28;20075;-67
2021/08/29 05:52:29;;;;;;;5.17;2.67;;;;;;;14.10;100.00;146926.25;5041832;28;20099;-68
2021/08/29 05:54:55;;;;;;;7.77;2.70;;;;;;;14.08;100.00;146922.44;5058595;28;20067;-67
2021/08/29 05:57:20;;;;;;;5.90;3.07;;;;;;;14.11;100.00;147269.84;5047644;28;20123;-67
2021/08/29 05:59:46;;;;;;;6.73;3.20;;;;;;;14.09;100.00;146924.97;5050690;28;20094;-67
2021/08/29 06:02:11;;;;;;;6.07;2.90;;;;;;;14.13;100.00;146933.81;5046304;28;20176;-67
2021/08/29 06:04:37;;;;;;;7.17;3.13;;;;;;;14.17;100.00;146943.91;5057917;28;20052;-67
2021/08/29 06:07:04;;;;;;;6.17;3.20;;;;;;;14.20;100.00;146951.53;5043046;28;20040;-67
2021/08/29 06:09:29;;;;;;;6.47;3.30;;;;;;;14.25;100.00;146964.16;5051905;28;20045;-67
2021/08/29 06:11:55;;;;;;;7.20;3.50;;;;;;;14.24;100.00;146621.75;5050996;28;20036;-67
2021/08/29 06:14:20;;;;;;;8.47;3.47;;;;;;;14.25;100.00;146623.00;5056704;28;20032;-67
2021/08/29 06:16:46;;;;;;;7.77;3.23;;;;;;;14.28;100.00;146289.44;5057981;28;20033;-67
2021/08/29 06:19:11;;;;;;;6.37;3.60;;;;;;;14.21;100.00;145591.03;5049704;28;20186;-67
2021/08/29 06:21:37;;;;;;;7.87;3.73;;;;;;;14.28;100.00;145607.28;5056062;28;20125;-67
2021/08/29 06:24:02;;;;;;;7.97;3.80;;;;;;;14.28;100.00;145267.50;5060775;28;20029;-67
2021/08/29 06:26:28;;;;;;;9.47;3.77;;;;;;;14.29;100.00;144586.81;5062277;28;20202;-67
2021/08/29 06:28:53;;;;;;;7.90;4.00;;;;;;;14.40;100.00;144955.19;5061512;28;20119;-67
2021/08/29 06:31:19;;;;;;;9.43;3.60;;;;;;;14.48;100.00;144634.13;5061717;28;20232;-67
2021/08/29 06:33:44;;;;;;;9.03;3.43;;;;;;;14.51;100.00;143617.28;5061470;28;20028;-67
2021/08/29 06:36:10;;;;;;;8.43;3.60;;;;;;;14.55;100.00;143287.44;5060272;28;20028;-67
2021/08/29 06:38:35;;;;;;;6.53;3.50;;;;;;;14.57;100.00;143292.34;5061606;28;20269;-67
2021/08/29 06:41:01;;;;;;;9.90;4.00;;;;;;;14.51;100.00;142594.50;5061824;28;20529;-67
2021/08/29 06:43:27;;;;;;;7.40;3.77;;;;;;;14.64;100.00;142968.56;5061518;28;20029;-67
2021/08/29 06:45:52;;;;;;;8.43;3.60;;;;;;;14.67;100.00;142632.53;5061728;28;20028;-67
2021/08/29 06:48:18;;;;;;;7.57;3.33;;;;;;;14.73;100.00;142306.25;5061806;28;20055;-67
2021/08/29 06:50:43;;;;;;;6.63;3.67;;;;;;;14.74;100.00;141967.72;5054347;28;20037;-67
2021/08/29 06:53:09;;;;;;;6.90;3.77;;;;;;;14.60;100.00;141254.31;5061460;28;20771;-67
2021/08/29 06:55:34;;;;;;;6.80;3.37;;;;;;;14.60;100.00;140572.78;5061116;28;20044;-68
2021/08/29 06:58:00;;;;;;;6.93;3.57;;;;;;;14.71;100.00;141960.41;5061698;28;20102;-67
2021/08/29 07:00:25;;;;;;;6.77;3.70;;;;;;;14.74;100.00;141626.81;5061442;28;20040;-68
2021/08/29 07:02:50;;;;;;;9.53;3.70;;;;;;;14.67;100.00;141270.16;5061239;28;20488;-67
2021/08/29 07:05:16;;;;;;;8.07;3.83;;;;;;;14.77;100.00;141634.09;5061251;28;20094;-67
2021/08/29 07:07:41;;;;;;;8.23;3.93;;;;;;;14.80;100.00;141641.44;5061613;28;20264;-67
2021/08/29 07:10:08;;;;;;;8.27;4.03;;;;;;;14.75;100.00;141289.53;5061030;28;20060;-67
2021/08/29 07:12:33;;;;;;;9.00;3.87;;;;;;;14.72;100.00;139236.44;5061066;28;20265;-67
2021/08/29 07:14:59;;;;;;;7.20;4.03;;;;;;;14.85;100.00;139608.34;5056864;28;20040;-67
2021/08/29 07:17:24;;;;;;;10.80;4.70;;;;;;;14.95;100.00;140315.31;5053770;28;20036;-67
2021/08/29 07:19:49;;;;;;;8.33;4.07;;;;;;;15.04;100.00;138972.25;5061169;28;20477;-67
2021/08/29 07:22:15;;;;;;;7.17;3.83;;;;;;;15.12;100.00;138309.66;5061357;28;20032;-67
2021/08/29 07:24:40;;;;;;;8.20;3.93;;;;;;;15.28;100.00;136300.59;5060973;28;20298;-67
2021/08/29 07:27:06;;;;;;;8.47;4.10;;;;;;;15.23;100.00;135950.53;5057432;28;20032;-67
2021/08/29 07:29:32;;;;;;;7.43;3.83;;;;;;;15.31;100.00;134945.03;5057021;28;20044;-67
2021/08/29 07:31:58;;;;;;;7.53;4.03;;;;;;;15.38;100.00;135642.53;5053435;28;20258;-67
2021/08/29 07:34:24;;;;;;;7.43;4.17;;;;;;;15.45;100.00;134978.66;5054317;28;20562;-67
2021/08/29 07:36:49;;;;;;;8.13;3.73;;;;;;;15.46;100.00;134639.16;5059873;28;20116;-67
2021/08/29 07:39:15;;;;;;;7.97;4.07;;;;;;;15.35;100.00;131549.84;5054547;28;20021;-67
2021/08/29 07:41:40;;;;;;;6.57;3.60;;;;;;;15.31;100.00;131541.94;5059846;28;20025;-67
2021/08/29 07:44:06;;;;;;;10.47;3.77;;;;;;;15.39;100.00;130538.16;5056921;28;20036;-67
2021/08/29 07:46:31;;;;;;;6.87;3.67;;;;;;;15.41;100.00;130882.88;5049417;28;20087;-67
2021/08/29 07:48:57;;;;;;;8.87;4.13;;;;;;;15.49;100.00;129880.09;5049914;28;20046;-67
2021/08/29 07:51:22;;;;;;;7.67;3.70;;;;;;;15.50;100.00;129202.00;5055004;28;20029;-67
2021/08/29 07:53:48;;;;;;;8.73;3.87;;;;;;;15.68;100.00;130943.69;5057112;28;20047;-67
2021/08/29 07:56:13;;;;;;;8.17;3.40;;;;;;;15.74;100.00;127554.38;5057843;28;20064;-67
2021/08/29 07:58:39;;;;;;;6.70;3.30;;;;;;;15.68;100.00;126181.19;5057543;28;20056;-67
2021/08/29 08:01:04;;;;;;;6.90;3.57;;;;;;;15.93;100.00;125554.25;5057834;28;20028;-67
2021/08/29 08:03:30;;;;;;;6.50;3.10;;;;;;;16.10;100.00;120832.41;5057398;28;20028;-67
2021/08/29 08:05:55;;;;;;;6.73;3.10;;;;;;;16.40;100.00;114781.06;5057568;28;20116;-67
2021/08/29 08:08:21;;;;;;;6.80;3.20;;;;;;;16.48;100.00;111065.75;5057573;28;20039;-67
2021/08/29 08:10:46;;;;;;;7.47;3.70;;;;;;;16.39;100.00;114101.66;5057427;28;20036;-67
2021/08/29 08:13:12;;;;;;;5.57;2.93;;;;;;;16.22;100.00;111017.91;5057446;28;20304;-67
2021/08/29 08:15:38;;;;;;;6.43;3.17;;;;;;;16.20;100.00;114403.41;5056023;28;20055;-67
2021/08/29 08:18:03;;;;;;;6.23;2.77;;;;;;;16.19;100.00;112706.41;5057148;28;20496;-67
2021/08/29 08:20:29;;;;;;;8.00;2.90;;;;;;;16.02;100.00;109286.78;5056722;28;20032;-67
2021/08/29 08:22:55;;;;;;;4.87;2.73;;;;;;;15.98;100.00;116055.34;5044593;28;20087;-67
2021/08/29 08:25:20;;;;;;;5.27;2.77;;;;;;;15.92;100.00;118758.25;5053157;28;20034;-67
2021/08/29 08:27:46;;;;;;;6.17;2.73;;;;;;;16.07;100.00;119466.84;5057145;28;20060;-67
2021/08/29 08:30:12;;;;;;;5.63;2.63;;;;;;;16.09;100.00;120151.09;5056307;28;20036;-67
2021/08/29 08:32:38;;;;;;;7.43;2.90;;;;;;;16.32;100.00;117141.41;5056712;28;20032;-67
2021/08/29 08:35:04;;;;;;;5.47;2.70;;;;;;;16.46;100.00;119545.97;5053545;28;20043;-67
2021/08/29 08:37:29;;;;;;;5.10;2.63;;;;;;;16.54;100.00;115825.81;5049088;28;20473;-67
2021/08/29 08:39:55;;;;;;;4.80;2.63;;;;;;;16.53;100.00;109043.09;5054036;28;20254;-67
2021/08/29 08:42:20;;;;;;;6.80;3.47;;;;;;;16.47;100.00;107676.25;5046922;28;20064;-67
2021/08/29 08:44:47;;;;;;;4.73;2.63;;;;;;;16.28;100.00;108997.09;5048374;28;20028;-67
2021/08/29 08:47:17;;;;;;;5.73;2.93;;;;;;;16.22;100.00;119158.06;5048151;28;20032;-67
2021/08/29 08:49:43;;;;;;;6.33;2.90;;;;;;;16.31;100.00;123934.41;5046198;28;20060;-67
2021/08/29 08:52:16;;;;;;;5.17;2.87;;;;;;;16.27;100.00;117810.22;5045937;28;20035;-67
2021/08/29 08:54:43;;;;;;;5.27;2.90;;;;;;;16.18;100.00;118810.38;5052696;28;20302;-67
2021/08/29 08:57:10;;;;;;;6.63;3.00;;;;;;;16.33;100.00;124278.78;5051530;28;20500;-67
2021/08/29 08:59:36;;;;;;;7.57;2.93;;;;;;;16.28;100.00;117472.78;5053435;28;20504;-67
2021/08/29 09:02:02;;;;;;;4.83;2.87;;;;;;;16.34;100.00;115787.94;5041295;28;20037;-67
2021/08/29 09:04:27;;;;;;;6.17;3.30;;;;;;;16.28;100.00;114419.19;5054173;28;20034;-67
2021/08/29 09:06:53;;;;;;;7.67;3.10;;;;;;;16.36;100.00;121565.16;5053530;28;20147;-67
2021/08/29 09:09:19;;;;;;;5.97;3.10;;;;;;;16.28;100.00;124267.03;5050591;28;20058;-67
2021/08/29 09:11:44;;;;;;;4.63;2.83;;;;;;;16.30;100.00;121212.75;5052242;28;20028;-67
2021/08/29 09:14:13;;;;;;;5.57;2.93;;;;;;;16.21;100.00;122552.22;5054999;28;20255;-67
2021/08/29 09:16:41;;;;;;;4.83;2.70;;;;;;;16.25;100.00;120182.13;5054870;28;20377;-67
2021/08/29 09:19:07;;;;;;;7.33;2.80;;;;;;;16.27;100.00;116112.31;5052317;28;20085;-67
2021/08/29 09:21:35;;;;;;;5.13;2.57;;;;;;;16.33;100.00;117142.44;5053192;28;20493;-67
2021/08/29 09:24:07;;;;;;;4.87;2.77;;;;;;;16.60;100.00;120593.34;5054501;28;20150;-67
2021/08/29 09:26:32;;;;;;;6.15;2.97;;;;;;;16.72;100.00;116200.25;5055531;28;20296;-67
2021/08/29 09:28:59;;;;;;;4.87;2.63;;;;;;;16.81;100.00;112485.56;5049528;28;20119;-67
2021/08/29 09:31:45;;;;;;;4.03;2.20;;;;;;;16.80;100.00;99953.41;5054717;28;20119;-67
2021/08/29 09:34:10;;;;;;;5.30;2.50;;;;;;;16.96;100.00;107089.53;5052320;28;20190;-67
2021/08/29 09:36:38;;;;;;;5.30;2.60;;;;;;;16.91;100.00;109790.63;5056221;28;20668;-67
2021/08/29 09:39:17;;;;;;;3.97;2.30;;;;;;;16.89;100.00;113858.50;5050452;28;20036;-67
2021/08/29 09:41:44;;;;;;;4.30;2.30;;;;;;;16.87;100.00;106733.28;5047743;28;20037;-67
2021/08/29 09:44:19;;;;;;;3.53;1.83;;;;;;;16.95;100.00;107087.66;5055889;28;20029;-67
2021/08/29 09:46:56;;;;;;;3.83;2.20;;;;;;;16.82;100.00;104354.94;5039703;28;20037;-67
2021/08/29 09:49:29;;;;;;;3.23;2.00;;;;;;;16.89;100.00;108431.00;5055649;28;20328;-67
2021/08/29 09:51:57;;;;;;;4.63;2.27;;;;;;;16.96;100.00;109801.03;5056026;28;20115;-67
2021/08/29 09:54:36;;;;;;;3.70;1.97;;;;;;;17.01;100.00;101342.44;5051266;28;20338;-67
2021/08/29 09:57:06;;;;;;;4.80;2.13;;;;;;;17.29;100.00;102744.47;5041779;28;20080;-67
2021/08/29 09:59:47;;;;;;;3.80;2.00;;;;;;;17.67;100.00;87261.28;5057532;28;20029;-67
2021/08/29 10:02:32;;;;;;;3.20;1.90;;;;;;;17.74;100.00;66422.75;5050141;28;20465;-67
2021/08/29 10:05:19;;;;;;;3.17;1.70;;;;;;;17.77;100.00;82894.09;5055050;28;20047;-67
2021/08/29 10:08:09;;;;;;;4.05;2.08;;;;;;;17.91;100.00;72148.16;5056397;28;20492;-67
2021/08/29 10:10:39;;;;;;;3.58;1.90;;;;;;;18.28;100.00;55763.44;5058430;28;20112;-67
2021/08/29 10:13:06;;;;;;;4.00;1.92;;;;;;;19.00;100.00;15222.53;5056386;28;20032;-67
2021/08/29 10:15:33;;;;;;;3.75;1.92;;;;;;;19.31;100.00;-13492.97;5057072;28;20058;-67
2021/08/29 10:18:00;;;;;;;2.90;1.48;;;;;;;19.80;100.00;-19679.63;5052813;28;20024;-67
2021/08/29 10:20:27;;;;;;;3.15;1.50;;;;;;;19.05;100.00;-19660.38;5049921;28;20039;-67
2021/08/29 10:22:53;;;;;;;4.07;1.50;;;;;;;18.82;100.00;25154.59;5052336;28;20059;-67
2021/08/29 10:25:20;;;;;;;4.40;1.55;;;;;;;18.75;100.00;5308.13;5051753;28;20034;-67
2021/08/29 10:27:50;;;;;;;3.22;1.60;;;;;;;18.94;100.00;3002.84;5059438;28;20340;-67
2021/08/29 10:30:18;;;;;;;2.67;1.58;;;;;;;19.10;100.00;-4898.34;5056809;28;20025;-67
2021/08/29 10:32:45;;;;;;;3.17;1.45;;;;;;;19.56;100.00;-19673.66;5059379;28;20028;-67
2021/08/29 10:35:13;;;;;;;2.50;1.38;;;;;;;19.74;100.00;-19678.19;5053556;28;20044;-67
2021/08/29 10:37:41;;;;;;;2.40;1.27;;;;;;;19.68;100.00;-19676.63;5046359;28;20280;-67
2021/08/29 10:40:07;;;;;;;2.72;1.10;;;;;;;19.85;100.00;-19681.06;5046865;28;20534;-67
2021/08/29 10:42:38;;;;;;;2.20;1.15;;;;;;;19.95;100.00;-19683.53;5049397;28;20393;-67
2021/08/29 10:45:05;;;;;;;1.77;1.17;;;;;;;19.96;100.00;-19683.66;5054189;28;20116;-67
2021/08/29 10:47:32;;;;;;;2.28;1.20;;;;;;;19.56;100.00;-19673.66;5058957;28;20635;-67
2021/08/29 10:49:59;;;;;;;2.03;1.17;;;;;;;19.21;100.00;-19664.66;5051550;28;20635;-67
2021/08/29 10:52:36;;;;;;;2.78;1.25;;;;;;;18.92;100.00;-5226.78;5057791;28;20228;-67
2021/08/29 10:55:08;;;;;;;2.90;1.10;;;;;;;19.10;100.00;15887.38;5050420;28;20032;-67
2021/08/29 10:57:41;;;;;;;2.35;1.13;;;;;;;19.87;100.00;-19681.44;5052456;28;20028;-67
2021/08/29 11:00:31;;;;;;;1.52;0.80;;;;;;;20.83;100.00;-19705.88;5057279;28;20028;-67
2021/08/29 11:02:56;;;;;;;2.15;0.90;;;;;;;20.18;100.00;-19689.38;5056900;28;20328;-67
2021/08/29 11:05:53;;;;;;;1.40;0.68;;;;;;;19.80;100.00;-19679.75;5057577;28;20124;-67
2021/08/29 11:08:30;;;;;;;1.88;0.65;;;;;;;19.75;100.00;-10820.47;5048549;28;20371;-67
2021/08/29 11:10:55;;;;;;;1.08;0.70;;;;;;;19.67;100.00;-1935.34;5051579;28;20256;-67
2021/08/29 11:13:39;;;;;;;1.33;0.80;;;;;;;19.62;100.00;-19675.06;5047878;28;20052;-67
2021/08/29 11:16:23;;;;;;;1.13;0.70;;;;;;;19.33;100.00;-6214.56;5055552;28;20497;-67